sensor_id;sensor_type;location;lat;lon;timestamp;temperature;humidity
55064;DHT22;40963;52.168;21.296;2024-03-23T00:54:22;8.90;99.90
55064;DHT22;40963;52.168;21.296;2024-03-23T00:56:47;8.90;99.90
55064;DHT22;40963;52.168;21.296;2024-03-23T00:59:13;8.90;99.90
55064;DHT22;40963;52.168;21.296;2024-03-23T01:01:39;8.90;99.90
55064;DHT22;40963;52.168;21.296;2024-03-23T01:04:04;8.90;99.90
55064;DHT22;40963;52.168;21.296;2024-03-23T01:06:30;8.90;99.90
55064;DHT22;40963;52.168;21.296;2024-03-23T01:08:55;8.90;99.90
55064;DHT22;40963;52.168;21.296;2024-03-23T01:11:21;8.90;99.90
55064;DHT22;40963;52.168;21.296;2024-03-23T01:13:46;8.90;99.90
55064;DHT22;40963;52.168;21.296;2024-03-23T01:16:12;8.90;99.90
55064;DHT22;40963;52.168;21.296;2024-03-23T01:18:37;8.90;99.90
55064;DHT22;40963;52.168;21.296;2024-03-23T01:21:03;8.80;99.90
55064;DHT22;40963;52.168;21.296;2024-03-23T01:23:29;8.90;99.90
55064;DHT22;40963;52.168;21.296;2024-03-23T01:25:54;8.80;99.90
55064;DHT22;40963;52.168;21.296;2024-03-23T01:28:21;8.80;99.90
55064;DHT22;40963;52.168;21.296;2024-03-23T01:30:47;8.90;99.90
55064;DHT22;40963;52.168;21.296;2024-03-23T01:33:13;8.80;99.90
55064;DHT22;40963;52.168;21.296;2024-03-23T01:35:38;8.80;99.90
55064;DHT22;40963;52.168;21.296;2024-03-23T01:38:04;8.80;99.90
55064;DHT22;40963;52.168;21.296;2024-03-23T01:40:29;8.80;99.90
55064;DHT22;40963;52.168;21.296;2024-03-23T01:43:07;8.80;99.90
55064;DHT22;40963;52.168;21.296;2024-03-23T01:45:33;8.80;99.90
55064;DHT22;40963;52.168;21.296;2024-03-23T01:47:59;8.80;99.90
55064;DHT22;40963;52.168;21.296;2024-03-23T01:50:25;8.80;99.90
55064;DHT22;40963;52.168;21.296;2024-03-23T01:52:51;8.80;99.90
55064;DHT22;40963;52.168;21.296;2024-03-23T01:55:17;8.80;99.90
55064;DHT22;40963;52.168;21.296;2024-03-23T01:57:42;8.80;99.90
55064;DHT22;40963;52.168;21.296;2024-03-23T02:00:08;8.80;99.90
55064;DHT22;40963;52.168;21.296;2024-03-23T02:02:35;8.80;99.90
55064;DHT22;40963;52.168;21.296;2024-03-23T02:05:01;8.80;99.90
55064;DHT22;40963;52.168;21.296;2024-03-23T02:07:27;8.70;99.90
55064;DHT22;40963;52.168;21.296;2024-03-23T02:09:52;8.80;99.90
55064;DHT22;40963;52.168;21.296;2024-03-23T02:12:18;8.80;99.90
55064;DHT22;40963;52.168;21.296;2024-03-23T02:14:44;8.80;99.90
55064;DHT22;40963;52.168;21.296;2024-03-23T02:17:10;8.80;99.90
55064;DHT22;40963;52.168;21.296;2024-03-23T02:19:35;8.80;99.90
55064;DHT22;40963;52.168;21.296;2024-03-23T02:22:01;8.80;99.90
55064;DHT22;40963;52.168;21.296;2024-03-23T02:24:26;8.80;99.90
55064;DHT22;40963;52.168;21.296;2024-03-23T02:26:52;8.80;99.90
55064;DHT22;40963;52.168;21.296;2024-03-23T02:29:17;8.80;99.90
55064;DHT22;40963;52.168;21.296;2024-03-23T02:31:44;8.80;99.90
55064;DHT22;40963;52.168;21.296;2024-03-23T02:34:10;8.80;99.90
55064;DHT22;40963;52.168;21.296;2024-03-23T02:36:36;8.80;99.90
55064;DHT22;40963;52.168;21.296;2024-03-23T02:39:01;8.80;99.90
55064;DHT22;40963;52.168;21.296;2024-03-23T02:41:27;8.80;99.90
55064;DHT22;40963;52.168;21.296;2024-03-23T02:43:52;8.80;99.90
55064;DHT22;40963;52.168;21.296;2024-03-23T02:46:18;8.80;99.90
55064;DHT22;40963;52.168;21.296;2024-03-23T02:48:43;8.80;99.90
55064;DHT22;40963;52.168;21.296;2024-03-23T02:51:09;8.80;99.90
55064;DHT22;40963;52.168;21.296;2024-03-23T02:53:35;8.80;99.90
55064;DHT22;40963;52.168;21.296;2024-03-23T02:56:00;8.80;99.90
55064;DHT22;40963;52.168;21.296;2024-03-23T02:58:26;8.80;99.90
55064;DHT22;40963;52.168;21.296;2024-03-23T03:00:51;8.80;99.90
55064;DHT22;40963;52.168;21.296;2024-03-23T03:03:17;8.80;99.90
55064;DHT22;40963;52.168;21.296;2024-03-23T03:05:42;8.80;99.90
55064;DHT22;40963;52.168;21.296;2024-03-23T03:08:08;8.80;99.90
55064;DHT22;40963;52.168;21.296;2024-03-23T03:10:33;8.80;99.90
55064;DHT22;40963;52.168;21.296;2024-03-23T03:13:01;8.80;99.90
55064;DHT22;40963;52.168;21.296;2024-03-23T03:15:27;8.80;99.90
55064;DHT22;40963;52.168;21.296;2024-03-23T03:17:53;8.80;99.90
55064;DHT22;40963;52.168;21.296;2024-03-23T03:20:18;8.80;99.90
55064;DHT22;40963;52.168;21.296;2024-03-23T03:22:44;8.80;99.90
55064;DHT22;40963;52.168;21.296;2024-03-23T03:25:09;8.80;99.90
55064;DHT22;40963;52.168;21.296;2024-03-23T03:27:35;8.80;99.90
55064;DHT22;40963;52.168;21.296;2024-03-23T03:30:01;8.80;99.90
55064;DHT22;40963;52.168;21.296;2024-03-23T03:32:29;8.80;99.90
55064;DHT22;40963;52.168;21.296;2024-03-23T03:34:54;8.80;99.90
55064;DHT22;40963;52.168;21.296;2024-03-23T03:37:20;8.90;99.90
55064;DHT22;40963;52.168;21.296;2024-03-23T03:39:45;8.80;99.90
55064;DHT22;40963;52.168;21.296;2024-03-23T03:42:11;8.80;99.90
55064;DHT22;40963;52.168;21.296;2024-03-23T03:44:36;8.90;99.90
55064;DHT22;40963;52.168;21.296;2024-03-23T03:47:02;8.80;99.90
55064;DHT22;40963;52.168;21.296;2024-03-23T03:49:27;8.80;99.90
55064;DHT22;40963;52.168;21.296;2024-03-23T03:51:53;8.80;99.90
55064;DHT22;40963;52.168;21.296;2024-03-23T03:54:18;8.80;99.90
55064;DHT22;40963;52.168;21.296;2024-03-23T03:56:44;8.80;99.90
55064;DHT22;40963;52.168;21.296;2024-03-23T03:59:09;8.90;99.90
55064;DHT22;40963;52.168;21.296;2024-03-23T04:01:35;8.90;99.90
55064;DHT22;40963;52.168;21.296;2024-03-23T04:04:01;8.90;99.90
55064;DHT22;40963;52.168;21.296;2024-03-23T04:06:26;8.90;99.90
55064;DHT22;40963;52.168;21.296;2024-03-23T04:08:52;8.90;99.90
55064;DHT22;40963;52.168;21.296;2024-03-23T04:11:18;8.90;99.90
55064;DHT22;40963;52.168;21.296;2024-03-23T04:13:43;8.90;99.90
55064;DHT22;40963;52.168;21.296;2024-03-23T04:16:09;8.90;99.90
55064;DHT22;40963;52.168;21.296;2024-03-23T04:18:34;8.90;99.90
55064;DHT22;40963;52.168;21.296;2024-03-23T04:21:00;8.90;99.90
55064;DHT22;40963;52.168;21.296;2024-03-23T04:23:26;8.90;99.90
55064;DHT22;40963;52.168;21.296;2024-03-23T04:25:51;8.90;99.90
55064;DHT22;40963;52.168;21.296;2024-03-23T04:28:18;8.90;99.90
55064;DHT22;40963;52.168;21.296;2024-03-23T04:30:44;8.90;99.90
55064;DHT22;40963;52.168;21.296;2024-03-23T04:33:09;8.90;99.90
55064;DHT22;40963;52.168;21.296;2024-03-23T04:35:35;8.90;99.90
55064;DHT22;40963;52.168;21.296;2024-03-23T04:38:01;8.90;99.90
55064;DHT22;40963;52.168;21.296;2024-03-23T04:40:26;8.90;99.90
55064;DHT22;40963;52.168;21.296;2024-03-23T04:42:52;8.90;99.90
55064;DHT22;40963;52.168;21.296;2024-03-23T04:45:17;8.90;99.90
55064;DHT22;40963;52.168;21.296;2024-03-23T04:47:43;8.90;99.90
55064;DHT22;40963;52.168;21.296;2024-03-23T04:50:09;8.90;99.90
55064;DHT22;40963;52.168;21.296;2024-03-23T04:52:37;8.90;99.90
55064;DHT22;40963;52.168;21.296;2024-03-23T04:55:03;8.90;99.90
55064;DHT22;40963;52.168;21.296;2024-03-23T04:57:29;8.90;99.90
55064;DHT22;40963;52.168;21.296;2024-03-23T04:59:54;8.90;99.90
55064;DHT22;40963;52.168;21.296;2024-03-23T05:02:20;9.00;99.90
55064;DHT22;40963;52.168;21.296;2024-03-23T05:04:45;9.00;99.90
55064;DHT22;40963;52.168;21.296;2024-03-23T05:07:11;9.00;99.90
55064;DHT22;40963;52.168;21.296;2024-03-23T05:09:37;9.00;99.90
55064;DHT22;40963;52.168;21.296;2024-03-23T05:12:02;9.00;99.90
55064;DHT22;40963;52.168;21.296;2024-03-23T05:14:28;9.00;99.90
55064;DHT22;40963;52.168;21.296;2024-03-23T05:16:54;9.00;99.90
55064;DHT22;40963;52.168;21.296;2024-03-23T05:19:20;9.00;99.90
55064;DHT22;40963;52.168;21.296;2024-03-23T05:21:46;9.00;99.90
55064;DHT22;40963;52.168;21.296;2024-03-23T05:24:12;9.00;99.90
55064;DHT22;40963;52.168;21.296;2024-03-23T05:26:38;9.00;99.90
55064;DHT22;40963;52.168;21.296;2024-03-23T05:29:03;9.00;99.90
55064;DHT22;40963;52.168;21.296;2024-03-23T05:31:30;9.00;99.90
55064;DHT22;40963;52.168;21.296;2024-03-23T05:33:56;9.00;99.90
55064;DHT22;40963;52.168;21.296;2024-03-23T05:36:21;9.00;99.90
55064;DHT22;40963;52.168;21.296;2024-03-23T05:38:47;9.00;99.90
55064;DHT22;40963;52.168;21.296;2024-03-23T05:41:13;9.00;99.90
55064;DHT22;40963;52.168;21.296;2024-03-23T05:43:39;9.00;99.90
55064;DHT22;40963;52.168;21.296;2024-03-23T05:46:04;9.00;99.90
55064;DHT22;40963;52.168;21.296;2024-03-23T05:48:31;9.00;99.90
55064;DHT22;40963;52.168;21.296;2024-03-23T05:50:57;9.10;99.90
55064;DHT22;40963;52.168;21.296;2024-03-23T05:53:23;9.00;99.90
55064;DHT22;40963;52.168;21.296;2024-03-23T05:55:50;9.00;99.90
55064;DHT22;40963;52.168;21.296;2024-03-23T05:58:17;9.00;99.90
55064;DHT22;40963;52.168;21.296;2024-03-23T06:00:43;9.00;99.90
55064;DHT22;40963;52.168;21.296;2024-03-23T06:03:09;9.00;99.90
55064;DHT22;40963;52.168;21.296;2024-03-23T06:05:36;9.10;99.90
55064;DHT22;40963;52.168;21.296;2024-03-23T06:08:01;9.00;99.90
55064;DHT22;40963;52.168;21.296;2024-03-23T06:10:27;9.10;99.90
55064;DHT22;40963;52.168;21.296;2024-03-23T06:12:53;9.10;99.90
55064;DHT22;40963;52.168;21.296;2024-03-23T06:15:19;9.00;99.90
55064;DHT22;40963;52.168;21.296;2024-03-23T06:17:44;9.10;99.90
55064;DHT22;40963;52.168;21.296;2024-03-23T06:20:10;9.10;99.90
55064;DHT22;40963;52.168;21.296;2024-03-23T06:22:36;9.10;99.90
55064;DHT22;40963;52.168;21.296;2024-03-23T06:25:02;9.10;99.90
55064;DHT22;40963;52.168;21.296;2024-03-23T06:27:28;9.10;99.90
55064;DHT22;40963;52.168;21.296;2024-03-23T06:29:53;9.20;99.90
55064;DHT22;40963;52.168;21.296;2024-03-23T06:32:20;9.20;99.90
55064;DHT22;40963;52.168;21.296;2024-03-23T06:34:45;9.20;99.90
55064;DHT22;40963;52.168;21.296;2024-03-23T06:37:11;9.20;99.90
55064;DHT22;40963;52.168;21.296;2024-03-23T06:39:37;9.30;99.90
55064;DHT22;40963;52.168;21.296;2024-03-23T06:42:03;9.20;99.90
55064;DHT22;40963;52.168;21.296;2024-03-23T06:44:29;9.20;99.90
55064;DHT22;40963;52.168;21.296;2024-03-23T06:46:54;9.20;99.90
55064;DHT22;40963;52.168;21.296;2024-03-23T06:49:20;9.30;99.90
55064;DHT22;40963;52.168;21.296;2024-03-23T06:51:46;9.30;99.90
55064;DHT22;40963;52.168;21.296;2024-03-23T06:54:11;9.30;99.90
55064;DHT22;40963;52.168;21.296;2024-03-23T06:56:37;9.30;99.90
55064;DHT22;40963;52.168;21.296;2024-03-23T06:59:03;9.30;99.90
55064;DHT22;40963;52.168;21.296;2024-03-23T07:01:28;9.30;99.90
55064;DHT22;40963;52.168;21.296;2024-03-23T07:03:54;9.30;99.90
55064;DHT22;40963;52.168;21.296;2024-03-23T07:06:20;9.30;99.90
55064;DHT22;40963;52.168;21.296;2024-03-23T07:08:45;9.30;99.90
55064;DHT22;40963;52.168;21.296;2024-03-23T07:11:11;9.30;99.90
55064;DHT22;40963;52.168;21.296;2024-03-23T07:13:36;9.30;99.90
55064;DHT22;40963;52.168;21.296;2024-03-23T07:16:02;9.30;99.90
55064;DHT22;40963;52.168;21.296;2024-03-23T07:18:27;9.30;99.90
55064;DHT22;40963;52.168;21.296;2024-03-23T07:20:55;9.30;99.90
55064;DHT22;40963;52.168;21.296;2024-03-23T07:23:22;9.30;99.90
55064;DHT22;40963;52.168;21.296;2024-03-23T07:25:59;9.40;99.90
55064;DHT22;40963;52.168;21.296;2024-03-23T07:28:25;9.30;99.90
55064;DHT22;40963;52.168;21.296;2024-03-23T07:31:06;9.30;99.90
55064;DHT22;40963;52.168;21.296;2024-03-23T07:33:36;9.40;99.90
55064;DHT22;40963;52.168;21.296;2024-03-23T07:36:02;9.40;99.90
55064;DHT22;40963;52.168;21.296;2024-03-23T07:38:28;9.40;99.90
55064;DHT22;40963;52.168;21.296;2024-03-23T07:41:11;9.40;99.90
55064;DHT22;40963;52.168;21.296;2024-03-23T07:43:39;9.40;99.90
55064;DHT22;40963;52.168;21.296;2024-03-23T07:46:06;9.40;99.90
55064;DHT22;40963;52.168;21.296;2024-03-23T07:48:32;9.40;99.90
55064;DHT22;40963;52.168;21.296;2024-03-23T07:53:26;9.40;99.90
55064;DHT22;40963;52.168;21.296;2024-03-23T07:55:56;9.50;99.90
55064;DHT22;40963;52.168;21.296;2024-03-23T07:58:22;9.40;99.90
55064;DHT22;40963;52.168;21.296;2024-03-23T08:00:48;9.40;99.90
55064;DHT22;40963;52.168;21.296;2024-03-23T08:03:13;9.40;99.90
55064;DHT22;40963;52.168;21.296;2024-03-23T08:05:39;9.40;99.90
55064;DHT22;40963;52.168;21.296;2024-03-23T08:08:05;9.50;99.90
55064;DHT22;40963;52.168;21.296;2024-03-23T08:10:30;9.50;99.90
55064;DHT22;40963;52.168;21.296;2024-03-23T08:12:56;9.40;99.90
55064;DHT22;40963;52.168;21.296;2024-03-23T08:15:21;9.50;99.90
55064;DHT22;40963;52.168;21.296;2024-03-23T08:17:47;9.50;99.90
55064;DHT22;40963;52.168;21.296;2024-03-23T08:20:12;9.50;99.90
55064;DHT22;40963;52.168;21.296;2024-03-23T08:22:38;9.50;99.90
55064;DHT22;40963;52.168;21.296;2024-03-23T08:25:04;9.50;99.90
55064;DHT22;40963;52.168;21.296;2024-03-23T08:27:29;9.50;99.90
55064;DHT22;40963;52.168;21.296;2024-03-23T08:29:55;9.60;99.90
55064;DHT22;40963;52.168;21.296;2024-03-23T08:32:20;9.70;99.90
55064;DHT22;40963;52.168;21.296;2024-03-23T08:34:46;9.70;99.90
55064;DHT22;40963;52.168;21.296;2024-03-23T08:37:11;9.70;99.90
55064;DHT22;40963;52.168;21.296;2024-03-23T08:39:36;9.80;99.90
55064;DHT22;40963;52.168;21.296;2024-03-23T08:42:02;9.70;99.90
55064;DHT22;40963;52.168;21.296;2024-03-23T08:44:28;9.80;99.90
55064;DHT22;40963;52.168;21.296;2024-03-23T08:46:56;9.80;99.90
55064;DHT22;40963;52.168;21.296;2024-03-23T08:49:21;9.80;99.90
55064;DHT22;40963;52.168;21.296;2024-03-23T08:51:47;9.80;99.90
55064;DHT22;40963;52.168;21.296;2024-03-23T08:54:12;9.80;99.90
55064;DHT22;40963;52.168;21.296;2024-03-23T08:56:38;9.80;99.90
55064;DHT22;40963;52.168;21.296;2024-03-23T08:59:03;9.90;99.90
55064;DHT22;40963;52.168;21.296;2024-03-23T09:01:29;10.00;99.90
55064;DHT22;40963;52.168;21.296;2024-03-23T09:03:54;10.00;99.90
55064;DHT22;40963;52.168;21.296;2024-03-23T09:06:21;10.10;99.90
55064;DHT22;40963;52.168;21.296;2024-03-23T09:08:46;10.20;99.90
55064;DHT22;40963;52.168;21.296;2024-03-23T09:11:13;10.30;99.90
55064;DHT22;40963;52.168;21.296;2024-03-23T09:13:39;10.40;99.90
55064;DHT22;40963;52.168;21.296;2024-03-23T09:16:06;10.40;99.90
55064;DHT22;40963;52.168;21.296;2024-03-23T09:18:33;10.50;99.90
55064;DHT22;40963;52.168;21.296;2024-03-23T09:20:58;10.50;99.90
55064;DHT22;40963;52.168;21.296;2024-03-23T09:23:24;10.60;99.90
55064;DHT22;40963;52.168;21.296;2024-03-23T09:25:50;10.80;99.90
55064;DHT22;40963;52.168;21.296;2024-03-23T09:28:15;10.80;99.90
55064;DHT22;40963;52.168;21.296;2024-03-23T09:30:41;10.80;99.90
55064;DHT22;40963;52.168;21.296;2024-03-23T09:33:12;10.90;99.90
55064;DHT22;40963;52.168;21.296;2024-03-23T09:35:43;10.90;99.90
55064;DHT22;40963;52.168;21.296;2024-03-23T09:38:09;10.90;99.90
55064;DHT22;40963;52.168;21.296;2024-03-23T09:40:40;10.90;99.90
55064;DHT22;40963;52.168;21.296;2024-03-23T09:43:07;11.00;99.90
55064;DHT22;40963;52.168;21.296;2024-03-23T09:45:38;11.10;99.90
55064;DHT22;40963;52.168;21.296;2024-03-23T09:48:04;11.20;99.90
55064;DHT22;40963;52.168;21.296;2024-03-23T09:50:30;11.30;99.90
55064;DHT22;40963;52.168;21.296;2024-03-23T09:52:55;11.40;99.90
55064;DHT22;40963;52.168;21.296;2024-03-23T09:55:21;11.40;99.90
55064;DHT22;40963;52.168;21.296;2024-03-23T09:57:46;11.50;99.90
55064;DHT22;40963;52.168;21.296;2024-03-23T10:00:12;11.50;99.90
55064;DHT22;40963;52.168;21.296;2024-03-23T10:02:38;11.60;99.90
55064;DHT22;40963;52.168;21.296;2024-03-23T10:05:04;11.60;99.90
55064;DHT22;40963;52.168;21.296;2024-03-23T10:07:30;11.60;99.90
55064;DHT22;40963;52.168;21.296;2024-03-23T10:09:56;11.50;99.90
55064;DHT22;40963;52.168;21.296;2024-03-23T10:12:23;11.50;99.90
55064;DHT22;40963;52.168;21.296;2024-03-23T10:14:49;11.60;99.90
55064;DHT22;40963;52.168;21.296;2024-03-23T10:17:19;11.60;99.90
55064;DHT22;40963;52.168;21.296;2024-03-23T10:19:45;11.70;99.90
55064;DHT22;40963;52.168;21.296;2024-03-23T10:22:14;11.80;99.90
55064;DHT22;40963;52.168;21.296;2024-03-23T10:24:40;12.00;99.90
55064;DHT22;40963;52.168;21.296;2024-03-23T10:27:06;12.10;99.90
55064;DHT22;40963;52.168;21.296;2024-03-23T10:29:31;12.20;99.90
55064;DHT22;40963;52.168;21.296;2024-03-23T10:32:10;12.40;99.90
55064;DHT22;40963;52.168;21.296;2024-03-23T10:34:37;12.50;99.90
55064;DHT22;40963;52.168;21.296;2024-03-23T10:37:03;12.60;99.90
55064;DHT22;40963;52.168;21.296;2024-03-23T10:39:34;12.80;99.90
55064;DHT22;40963;52.168;21.296;2024-03-23T10:42:04;12.90;99.90
55064;DHT22;40963;52.168;21.296;2024-03-23T10:44:31;13.10;99.90
55064;DHT22;40963;52.168;21.296;2024-03-23T10:47:01;13.30;99.90
55064;DHT22;40963;52.168;21.296;2024-03-23T10:49:28;13.50;99.90
55064;DHT22;40963;52.168;21.296;2024-03-23T10:51:58;13.70;99.90
55064;DHT22;40963;52.168;21.296;2024-03-23T10:54:25;13.90;99.90
55064;DHT22;40963;52.168;21.296;2024-03-23T10:57:36;14.10;99.90
55064;DHT22;40963;52.168;21.296;2024-03-23T10:59:41;14.20;99.90
55064;DHT22;40963;52.168;21.296;2024-03-23T11:02:07;14.40;99.90
55064;DHT22;40963;52.168;21.296;2024-03-23T11:04:43;14.50;99.90
55064;DHT22;40963;52.168;21.296;2024-03-23T11:09:54;14.60;99.90
55064;DHT22;40963;52.168;21.296;2024-03-23T11:14:56;14.70;99.90
55064;DHT22;40963;52.168;21.296;2024-03-23T11:17:23;14.80;99.90
55064;DHT22;40963;52.168;21.296;2024-03-23T11:20:02;14.80;99.90
55064;DHT22;40963;52.168;21.296;2024-03-23T11:25:23;15.10;99.90
55064;DHT22;40963;52.168;21.296;2024-03-23T11:27:53;15.30;99.90
55064;DHT22;40963;52.168;21.296;2024-03-23T11:30:23;15.30;99.90
55064;DHT22;40963;52.168;21.296;2024-03-23T11:32:51;15.30;99.90
55064;DHT22;40963;52.168;21.296;2024-03-23T11:35:37;15.40;99.90
55064;DHT22;40963;52.168;21.296;2024-03-23T11:38:11;15.60;99.90
55064;DHT22;40963;52.168;21.296;2024-03-23T11:40:39;15.70;98.00
55064;DHT22;40963;52.168;21.296;2024-03-23T11:43:06;15.70;96.50
55064;DHT22;40963;52.168;21.296;2024-03-23T11:45:37;15.80;94.30
55064;DHT22;40963;52.168;21.296;2024-03-23T11:50:33;15.90;93.10
55064;DHT22;40963;52.168;21.296;2024-03-23T11:53:09;16.00;92.20
55064;DHT22;40963;52.168;21.296;2024-03-23T11:55:42;16.10;91.40
55064;DHT22;40963;52.168;21.296;2024-03-23T11:58:10;16.00;90.60
55064;DHT22;40963;52.168;21.296;2024-03-23T12:00:36;16.00;90.40
55064;DHT22;40963;52.168;21.296;2024-03-23T12:03:02;15.90;90.30
55064;DHT22;40963;52.168;21.296;2024-03-23T12:05:34;15.90;90.30
55064;DHT22;40963;52.168;21.296;2024-03-23T12:08:19;15.80;90.30
55064;DHT22;40963;52.168;21.296;2024-03-23T12:10:47;15.70;90.30
55064;DHT22;40963;52.168;21.296;2024-03-23T12:13:15;15.70;90.70
55064;DHT22;40963;52.168;21.296;2024-03-23T12:15:43;15.70;90.80
55064;DHT22;40963;52.168;21.296;2024-03-23T12:18:09;15.80;91.10
55064;DHT22;40963;52.168;21.296;2024-03-23T12:20:36;15.90;91.00
55064;DHT22;40963;52.168;21.296;2024-03-23T12:23:11;16.10;90.90
55064;DHT22;40963;52.168;21.296;2024-03-23T12:25:40;16.20;88.40
55064;DHT22;40963;52.168;21.296;2024-03-23T12:28:06;16.30;85.40
55064;DHT22;40963;52.168;21.296;2024-03-23T12:30:34;16.30;83.70
55064;DHT22;40963;52.168;21.296;2024-03-23T12:33:00;16.40;83.10
55064;DHT22;40963;52.168;21.296;2024-03-23T12:35:26;16.40;81.50
55064;DHT22;40963;52.168;21.296;2024-03-23T12:37:52;16.50;81.30
55064;DHT22;40963;52.168;21.296;2024-03-23T12:40:18;16.60;80.60
55064;DHT22;40963;52.168;21.296;2024-03-23T12:42:45;16.60;79.20
55064;DHT22;40963;52.168;21.296;2024-03-23T12:45:10;16.50;78.70
55064;DHT22;40963;52.168;21.296;2024-03-23T12:47:36;16.50;78.70
55064;DHT22;40963;52.168;21.296;2024-03-23T12:50:01;16.50;78.70
55064;DHT22;40963;52.168;21.296;2024-03-23T12:52:27;16.60;79.10
55064;DHT22;40963;52.168;21.296;2024-03-23T12:54:57;16.60;78.30
55064;DHT22;40963;52.168;21.296;2024-03-23T12:57:26;16.60;77.90
55064;DHT22;40963;52.168;21.296;2024-03-23T12:59:52;16.40;77.20
55064;DHT22;40963;52.168;21.296;2024-03-23T13:02:22;16.40;77.70
55064;DHT22;40963;52.168;21.296;2024-03-23T13:04:52;16.30;77.40
55064;DHT22;40963;52.168;21.296;2024-03-23T13:07:18;16.10;77.30
55064;DHT22;40963;52.168;21.296;2024-03-23T13:09:44;16.00;77.60
55064;DHT22;40963;52.168;21.296;2024-03-23T13:12:10;15.90;78.10
55064;DHT22;40963;52.168;21.296;2024-03-23T13:14:38;15.90;78.60
55064;DHT22;40963;52.168;21.296;2024-03-23T13:17:04;15.80;78.50
55064;DHT22;40963;52.168;21.296;2024-03-23T13:19:29;15.80;78.80
55064;DHT22;40963;52.168;21.296;2024-03-23T13:22:00;15.80;79.20
55064;DHT22;40963;52.168;21.296;2024-03-23T13:24:27;15.80;79.20
55064;DHT22;40963;52.168;21.296;2024-03-23T13:26:54;15.70;79.00
55064;DHT22;40963;52.168;21.296;2024-03-23T13:29:20;15.80;79.00
55064;DHT22;40963;52.168;21.296;2024-03-23T13:31:48;15.70;78.60
55064;DHT22;40963;52.168;21.296;2024-03-23T13:34:14;15.70;78.70
55064;DHT22;40963;52.168;21.296;2024-03-23T13:36:41;15.70;78.50
55064;DHT22;40963;52.168;21.296;2024-03-23T13:39:07;15.70;78.30
55064;DHT22;40963;52.168;21.296;2024-03-23T13:41:40;15.70;78.20
55064;DHT22;40963;52.168;21.296;2024-03-23T13:44:07;15.80;78.60
55064;DHT22;40963;52.168;21.296;2024-03-23T13:46:33;15.80;78.30
55064;DHT22;40963;52.168;21.296;2024-03-23T13:49:00;15.80;78.10
55064;DHT22;40963;52.168;21.296;2024-03-23T13:51:26;15.90;77.80
55064;DHT22;40963;52.168;21.296;2024-03-23T13:53:55;15.90;77.40
55064;DHT22;40963;52.168;21.296;2024-03-23T13:56:28;15.90;77.30
55064;DHT22;40963;52.168;21.296;2024-03-23T13:58:58;15.90;76.80
55064;DHT22;40963;52.168;21.296;2024-03-23T14:01:23;15.80;76.60
55064;DHT22;40963;52.168;21.296;2024-03-23T14:03:49;15.80;76.40
55064;DHT22;40963;52.168;21.296;2024-03-23T14:06:15;15.80;76.40
55064;DHT22;40963;52.168;21.296;2024-03-23T14:08:40;15.80;76.30
55064;DHT22;40963;52.168;21.296;2024-03-23T14:11:07;15.70;76.30
55064;DHT22;40963;52.168;21.296;2024-03-23T14:13:34;15.70;76.40
55064;DHT22;40963;52.168;21.296;2024-03-23T14:16:01;15.60;76.50
55064;DHT22;40963;52.168;21.296;2024-03-23T14:18:27;15.70;76.70
55064;DHT22;40963;52.168;21.296;2024-03-23T14:20:56;15.60;76.90
55064;DHT22;40963;52.168;21.296;2024-03-23T14:23:24;15.50;77.10
55064;DHT22;40963;52.168;21.296;2024-03-23T14:25:55;15.50;77.20
55064;DHT22;40963;52.168;21.296;2024-03-23T14:28:22;15.50;77.30
55064;DHT22;40963;52.168;21.296;2024-03-23T14:30:51;15.40;77.50
55064;DHT22;40963;52.168;21.296;2024-03-23T14:33:17;15.40;77.70
55064;DHT22;40963;52.168;21.296;2024-03-23T14:35:55;15.40;78.10
55064;DHT22;40963;52.168;21.296;2024-03-23T14:38:22;15.30;79.00
55064;DHT22;40963;52.168;21.296;2024-03-23T14:40:47;15.30;80.00
55064;DHT22;40963;52.168;21.296;2024-03-23T14:43:13;15.30;81.20
55064;DHT22;40963;52.168;21.296;2024-03-23T14:46:10;15.20;82.10
55064;DHT22;40963;52.168;21.296;2024-03-23T14:48:36;15.20;83.00
55064;DHT22;40963;52.168;21.296;2024-03-23T14:51:02;15.10;83.70
55064;DHT22;40963;52.168;21.296;2024-03-23T14:53:36;15.10;84.70
55064;DHT22;40963;52.168;21.296;2024-03-23T14:56:02;15.00;85.80
55064;DHT22;40963;52.168;21.296;2024-03-23T14:58:28;15.00;86.80
55064;DHT22;40963;52.168;21.296;2024-03-23T15:01:02;14.90;87.80
55064;DHT22;40963;52.168;21.296;2024-03-23T15:03:27;14.90;89.20
55064;DHT22;40963;52.168;21.296;2024-03-23T15:05:57;14.80;90.30
55064;DHT22;40963;52.168;21.296;2024-03-23T15:08:23;14.80;91.10
55064;DHT22;40963;52.168;21.296;2024-03-23T15:10:49;14.70;92.50
55064;DHT22;40963;52.168;21.296;2024-03-23T15:13:15;14.60;94.20
55064;DHT22;40963;52.168;21.296;2024-03-23T15:15:41;14.50;96.90
55064;DHT22;40963;52.168;21.296;2024-03-23T15:18:13;14.40;99.90
55064;DHT22;40963;52.168;21.296;2024-03-23T15:20:40;14.30;99.90
55064;DHT22;40963;52.168;21.296;2024-03-23T15:23:06;14.10;99.90
55064;DHT22;40963;52.168;21.296;2024-03-23T15:25:32;14.00;99.90
55064;DHT22;40963;52.168;21.296;2024-03-23T15:27:58;13.80;99.90
55064;DHT22;40963;52.168;21.296;2024-03-23T15:30:24;13.60;99.90
55064;DHT22;40963;52.168;21.296;2024-03-23T15:32:50;13.50;99.90
55064;DHT22;40963;52.168;21.296;2024-03-23T15:35:15;13.40;99.90
55064;DHT22;40963;52.168;21.296;2024-03-23T15:37:41;13.30;99.90
55064;DHT22;40963;52.168;21.296;2024-03-23T15:40:07;13.20;99.90
55064;DHT22;40963;52.168;21.296;2024-03-23T15:42:35;13.10;99.90
55064;DHT22;40963;52.168;21.296;2024-03-23T15:45:00;13.10;99.90
55064;DHT22;40963;52.168;21.296;2024-03-23T15:47:26;13.00;99.90
55064;DHT22;40963;52.168;21.296;2024-03-23T15:49:51;12.90;99.90
55064;DHT22;40963;52.168;21.296;2024-03-23T15:52:20;12.80;99.90
55064;DHT22;40963;52.168;21.296;2024-03-23T15:54:46;12.60;99.90
55064;DHT22;40963;52.168;21.296;2024-03-23T15:57:11;12.40;99.90
55064;DHT22;40963;52.168;21.296;2024-03-23T15:59:40;12.20;99.90
55064;DHT22;40963;52.168;21.296;2024-03-23T16:02:06;12.10;99.90
55064;DHT22;40963;52.168;21.296;2024-03-23T16:04:32;12.00;99.90
55064;DHT22;40963;52.168;21.296;2024-03-23T16:06:57;11.90;99.90
55064;DHT22;40963;52.168;21.296;2024-03-23T16:09:23;11.80;99.90
55064;DHT22;40963;52.168;21.296;2024-03-23T16:11:48;11.70;99.90
55064;DHT22;40963;52.168;21.296;2024-03-23T16:14:14;11.60;99.90
55064;DHT22;40963;52.168;21.296;2024-03-23T16:16:39;11.50;99.90
55064;DHT22;40963;52.168;21.296;2024-03-23T16:19:04;11.40;99.90
55064;DHT22;40963;52.168;21.296;2024-03-23T16:21:30;11.40;99.90
55064;DHT22;40963;52.168;21.296;2024-03-23T16:23:56;11.40;99.90
55064;DHT22;40963;52.168;21.296;2024-03-23T16:26:23;11.40;99.90
55064;DHT22;40963;52.168;21.296;2024-03-23T16:28:49;11.40;99.90